createdAt,value
2017-08-26T00:00:12.837Z,18.30
2017-08-26T00:02:46.784Z,19.97
2017-08-26T00:05:24.374Z,18.60
2017-08-26T00:07:55.494Z,19.13
2017-08-26T00:10:23.011Z,16.47
2017-08-26T00:12:54.362Z,18.87
2017-08-26T00:15:21.868Z,18.03
2017-08-26T00:17:55.267Z,11.90
2017-08-26T00:20:24.354Z,16.00
2017-08-26T00:22:55.669Z,13.50
2017-08-26T00:25:24.825Z,16.50
2017-08-26T00:27:52.331Z,18.60
2017-08-26T00:30:26.640Z,17.50
2017-08-26T00:33:04.017Z,18.60
2017-08-26T00:35:31.815Z,22.30
2017-08-26T00:38:05.038Z,16.53
2017-08-26T00:40:34.260Z,20.30
2017-08-26T00:43:01.768Z,15.90
2017-08-26T00:45:29.304Z,16.77
2017-08-26T00:47:56.819Z,20.13
2017-08-26T00:50:24.339Z,16.90
2017-08-26T00:52:51.853Z,20.40
2017-08-26T00:55:25.692Z,16.57
2017-08-26T00:57:54.824Z,17.60
2017-08-26T01:00:23.923Z,14.23
2017-08-26T01:02:54.763Z,14.60
2017-08-26T01:05:25.870Z,10.73
2017-08-26T01:07:54.822Z,17.93
2017-08-26T01:10:22.310Z,20.83
2017-08-26T01:12:56.695Z,13.93
2017-08-26T01:15:24.191Z,17.97
2017-08-26T01:17:54.839Z,17.10
2017-08-26T01:20:22.347Z,16.83
2017-08-26T01:22:49.847Z,22.50
2017-08-26T01:25:17.654Z,17.97
2017-08-26T01:27:45.930Z,19.17
2017-08-26T01:30:14.036Z,20.27
2017-08-26T01:32:41.551Z,12.57
2017-08-26T01:35:09.047Z,18.17
2017-08-26T01:37:43.985Z,18.90
2017-08-26T01:40:11.488Z,17.57
2017-08-26T01:42:39.275Z,14.90
2017-08-26T01:45:06.761Z,15.90
2017-08-26T01:47:44.837Z,20.73
2017-08-26T01:50:12.343Z,19.40
2017-08-26T01:52:39.857Z,13.63
2017-08-26T01:55:07.364Z,27.37
2017-08-26T01:57:34.854Z,21.83
2017-08-26T02:00:02.640Z,15.00
2017-08-26T02:02:30.137Z,15.13
2017-08-26T02:05:04.562Z,18.03
2017-08-26T02:07:35.211Z,14.67
2017-08-26T02:10:02.709Z,19.53
2017-08-26T02:12:30.203Z,15.70
2017-08-26T02:14:57.711Z,11.93
2017-08-26T02:17:25.515Z,15.57
2017-08-26T02:19:53.008Z,17.43
2017-08-26T02:22:26.750Z,12.90
2017-08-26T02:25:03.942Z,17.30
2017-08-26T02:27:31.804Z,15.93
2017-08-26T02:29:59.291Z,22.67
2017-08-26T02:32:34.176Z,13.60
2017-08-26T02:35:01.697Z,15.30
2017-08-26T02:37:35.403Z,16.57
2017-08-26T02:40:04.097Z,20.63
2017-08-26T02:42:31.587Z,21.67
2017-08-26T02:45:05.065Z,21.47
2017-08-26T02:47:35.803Z,17.10
2017-08-26T02:50:04.377Z,15.80
2017-08-26T02:52:35.076Z,16.67
2017-08-26T02:55:02.851Z,15.17
2017-08-26T02:57:30.346Z,19.70
2017-08-26T03:00:03.971Z,21.93
2017-08-26T03:02:31.468Z,20.27
2017-08-26T03:05:05.347Z,21.83
2017-08-26T03:07:32.912Z,18.20
2017-08-26T03:10:00.481Z,20.47
2017-08-26T03:12:28.329Z,22.10
2017-08-26T03:15:03.828Z,17.50
2017-08-26T03:17:31.639Z,18.70
2017-08-26T03:20:00.045Z,19.37
2017-08-26T03:22:27.537Z,27.67
2017-08-26T03:25:03.552Z,17.00
2017-08-26T03:27:31.048Z,18.83
2017-08-26T03:29:58.878Z,15.30
2017-08-26T03:32:26.372Z,21.10
2017-08-26T03:34:54.200Z,19.17
2017-08-26T03:37:21.702Z,17.17
2017-08-26T03:39:49.209Z,20.40
2017-08-26T03:42:16.719Z,19.63
2017-08-26T03:44:54.280Z,15.30
2017-08-26T03:47:22.128Z,17.57
2017-08-26T03:49:49.642Z,16.90
2017-08-26T03:52:24.332Z,12.47
2017-08-26T03:54:54.861Z,13.97
2017-08-26T03:57:22.353Z,16.40
2017-08-26T03:59:49.856Z,14.83
2017-08-26T04:02:17.346Z,11.83
2017-08-26T04:04:55.224Z,12.87
2017-08-26T04:07:22.702Z,12.00
2017-08-26T04:09:50.201Z,11.97
2017-08-26T04:12:24.250Z,13.50
2017-08-26T04:14:51.744Z,19.70
2017-08-26T04:17:19.252Z,14.97
2017-08-26T04:19:54.321Z,15.70
2017-08-26T04:22:21.804Z,13.20
2017-08-26T04:24:49.314Z,12.20
2017-08-26T04:27:16.828Z,10.87
2017-08-26T04:29:54.310Z,16.37
2017-08-26T04:32:24.839Z,12.20
2017-08-26T04:34:52.335Z,12.13
2017-08-26T04:37:24.244Z,9.50
2017-08-26T04:39:51.735Z,14.23
2017-08-26T04:42:19.530Z,11.80
2017-08-26T04:44:54.164Z,10.00
2017-08-26T04:47:22.027Z,11.47
2017-08-26T04:49:55.692Z,13.37
2017-08-26T04:52:24.845Z,8.43
2017-08-26T04:54:52.330Z,9.90
2017-08-26T04:57:19.857Z,9.57
2017-08-26T04:59:47.667Z,14.33
2017-08-26T05:02:15.153Z,7.60
2017-08-26T05:04:44.212Z,12.23
2017-08-26T05:07:11.729Z,14.03
2017-08-26T05:09:39.222Z,10.53
2017-08-26T05:12:14.121Z,10.27
2017-08-26T05:14:42.380Z,12.30
2017-08-26T05:17:10.633Z,12.90
2017-08-26T05:19:44.633Z,9.50
2017-08-26T05:22:12.157Z,10.00
2017-08-26T05:24:45.861Z,8.57
2017-08-26T05:27:13.343Z,8.80
2017-08-26T05:29:41.159Z,10.33
2017-08-26T05:32:15.010Z,14.53
2017-08-26T05:34:44.277Z,8.70
2017-08-26T05:37:11.771Z,9.77
2017-08-26T05:39:39.270Z,8.07
2017-08-26T05:42:13.847Z,12.83
2017-08-26T05:44:44.644Z,11.07
2017-08-26T05:47:15.645Z,8.63
2017-08-26T05:49:44.266Z,10.10
2017-08-26T05:52:15.330Z,9.60
2017-08-26T05:54:44.596Z,8.93
2017-08-26T05:57:15.558Z,10.97
2017-08-26T05:59:43.047Z,10.00
2017-08-26T06:02:10.541Z,10.83
2017-08-26T06:04:38.048Z,10.83
2017-08-26T06:07:05.545Z,11.17
2017-08-26T06:09:33.357Z,10.33
2017-08-26T06:12:00.855Z,12.70
2017-08-26T06:14:28.338Z,7.03
2017-08-26T06:16:55.835Z,9.33
2017-08-26T06:19:24.061Z,8.60
2017-08-26T06:21:51.823Z,7.77
2017-08-26T06:24:19.309Z,8.80
2017-08-26T06:26:46.807Z,7.77
2017-08-26T06:29:24.797Z,8.33
2017-08-26T06:31:52.292Z,9.40
2017-08-26T06:34:20.084Z,9.77
2017-08-26T06:36:54.471Z,8.47
2017-08-26T06:39:22.304Z,6.30
2017-08-26T06:41:50.564Z,5.80
2017-08-26T06:44:18.824Z,7.50
2017-08-26T06:46:46.620Z,8.70
2017-08-26T06:49:25.234Z,9.53
2017-08-26T06:51:53.063Z,8.77
2017-08-26T06:54:20.568Z,18.77
2017-08-26T06:56:54.523Z,5.70
2017-08-26T06:59:22.039Z,8.33
2017-08-26T07:01:55.994Z,6.90
2017-08-26T07:04:23.497Z,6.80
2017-08-26T07:06:51.058Z,9.30
2017-08-26T07:09:18.555Z,5.30
2017-08-26T07:11:46.060Z,6.93
2017-08-26T07:14:13.846Z,7.60
2017-08-26T07:16:42.096Z,8.73
2017-08-26T07:19:09.595Z,8.70
2017-08-26T07:21:37.100Z,6.93
2017-08-26T07:24:04.623Z,8.80
2017-08-26T07:26:35.661Z,9.60
2017-08-26T07:29:03.140Z,7.60
2017-08-26T07:31:30.619Z,8.37
2017-08-26T07:33:58.110Z,9.83
2017-08-26T07:36:25.612Z,7.17
2017-08-26T07:38:53.395Z,8.30
2017-08-26T07:41:24.609Z,8.93
2017-08-26T07:43:55.607Z,11.10
2017-08-26T07:46:23.105Z,8.70
2017-08-26T07:48:56.799Z,12.57
2017-08-26T07:51:34.178Z,8.57
2017-08-26T07:54:02.072Z,8.97
2017-08-26T07:56:35.544Z,10.03
2017-08-26T07:59:04.640Z,11.43
2017-08-26T08:01:32.130Z,10.13
2017-08-26T08:03:59.616Z,9.20
2017-08-26T08:06:34.007Z,13.43
2017-08-26T08:09:01.518Z,12.90
2017-08-26T08:11:29.323Z,8.77
2017-08-26T08:13:56.811Z,9.90
2017-08-26T08:16:35.095Z,16.27
2017-08-26T08:19:02.605Z,11.30
2017-08-26T08:21:30.879Z,12.27
2017-08-26T08:24:05.276Z,11.20
2017-08-26T08:26:32.765Z,12.27
2017-08-26T08:29:03.908Z,14.30
2017-08-26T08:31:31.410Z,12.00
2017-08-26T08:34:05.399Z,10.50
2017-08-26T08:36:33.252Z,15.40
2017-08-26T08:39:05.074Z,14.87
2017-08-26T08:41:34.419Z,10.97
2017-08-26T08:44:01.915Z,9.93
2017-08-26T08:46:29.400Z,11.73
2017-08-26T08:48:56.898Z,15.40
2017-08-26T08:51:24.402Z,12.30
2017-08-26T08:53:56.012Z,20.10
2017-08-26T08:56:24.368Z,10.20
2017-08-26T08:58:51.856Z,11.23
2017-08-26T09:01:25.473Z,14.03
2017-08-26T09:03:52.964Z,10.90
2017-08-26T09:06:20.486Z,11.77
2017-08-26T09:08:47.983Z,9.93
2017-08-26T09:11:23.832Z,11.93
2017-08-26T09:13:51.635Z,16.13
2017-08-26T09:16:19.142Z,7.93
2017-08-26T09:18:46.646Z,11.83
2017-08-26T09:21:23.771Z,8.40
2017-08-26T09:23:51.265Z,10.20
2017-08-26T09:26:25.210Z,13.10
2017-08-26T09:28:53.476Z,9.97
2017-08-26T09:31:20.993Z,9.63
2017-08-26T09:33:48.802Z,11.83
2017-08-26T09:36:23.801Z,8.57
2017-08-26T09:38:51.624Z,12.63
2017-08-26T09:41:19.125Z,9.07
2017-08-26T09:43:53.999Z,10.43
2017-08-26T09:46:21.489Z,10.83
2017-08-26T09:48:55.227Z,12.43
2017-08-26T09:51:25.728Z,7.77
2017-08-26T09:53:54.333Z,9.43
2017-08-26T09:56:25.120Z,10.63
2017-08-26T09:58:55.835Z,7.67
2017-08-26T10:01:24.544Z,8.10
2017-08-26T10:03:52.032Z,8.30
2017-08-26T10:06:19.820Z,8.10
2017-08-26T10:08:54.272Z,7.33
2017-08-26T10:11:22.107Z,6.57
2017-08-26T10:13:55.575Z,7.40
2017-08-26T10:16:23.367Z,6.80
2017-08-26T10:18:50.860Z,6.73
2017-08-26T10:21:24.960Z,6.63
2017-08-26T10:23:52.454Z,7.00
2017-08-26T10:26:19.935Z,6.60
2017-08-26T10:28:54.186Z,9.40
2017-08-26T10:31:21.675Z,9.53
2017-08-26T10:33:49.174Z,8.00
2017-08-26T10:36:17.703Z,13.47
2017-08-26T10:38:45.197Z,7.87
2017-08-26T10:41:12.691Z,8.43
2017-08-26T10:43:40.192Z,6.90
2017-08-26T10:46:14.325Z,7.30
2017-08-26T10:48:42.140Z,8.83
2017-08-26T10:51:15.724Z,9.20
2017-08-26T10:53:44.820Z,10.33
2017-08-26T10:56:14.195Z,7.00
2017-08-26T10:58:45.368Z,7.03
2017-08-26T11:01:12.963Z,7.30
2017-08-26T11:03:40.460Z,6.40
2017-08-26T11:06:13.822Z,8.33
2017-08-26T11:08:41.306Z,7.63
2017-08-26T11:11:09.120Z,6.97
2017-08-26T11:13:36.616Z,7.50
2017-08-26T11:16:04.939Z,7.70
2017-08-26T11:18:33.251Z,7.30
2017-08-26T11:21:04.526Z,6.57
2017-08-26T11:23:35.440Z,10.00
2017-08-26T11:26:02.956Z,6.77
2017-08-26T11:28:34.277Z,6.33
2017-08-26T11:31:01.774Z,8.83
2017-08-26T11:33:36.209Z,6.40
2017-08-26T11:36:03.709Z,6.43
2017-08-26T11:38:35.031Z,6.50
2017-08-26T11:41:06.139Z,5.03
2017-08-26T11:43:34.332Z,6.43
2017-08-26T11:46:01.811Z,6.33
2017-08-26T11:48:29.344Z,7.97
2017-08-26T11:50:56.831Z,6.00
2017-08-26T11:53:44.270Z,5.63
2017-08-26T11:56:11.759Z,5.70
2017-08-26T11:58:39.608Z,5.37
2017-08-26T12:01:14.450Z,5.13
2017-08-26T12:03:42.320Z,4.30
2017-08-26T12:06:09.824Z,6.77
2017-08-26T12:08:44.813Z,6.53
2017-08-26T12:11:12.330Z,3.97
2017-08-26T12:13:39.828Z,6.53
2017-08-26T12:16:14.109Z,5.17
2017-08-26T12:18:41.587Z,4.83
2017-08-26T12:21:15.336Z,4.40
2017-08-26T12:23:42.823Z,3.90
2017-08-26T12:26:10.320Z,5.40
2017-08-26T12:28:38.206Z,4.73
2017-08-26T12:31:05.704Z,4.73
2017-08-26T12:33:33.924Z,4.57
2017-08-26T12:36:01.411Z,4.20
2017-08-26T12:38:28.900Z,4.20
2017-08-26T12:41:03.746Z,3.90
2017-08-26T12:43:31.237Z,4.40
2017-08-26T12:46:05.499Z,3.67
2017-08-26T12:48:32.998Z,3.80
2017-08-26T12:51:04.922Z,3.50
2017-08-26T12:53:35.604Z,3.20
2017-08-26T12:56:03.096Z,3.63
2017-08-26T12:58:30.596Z,3.37
2017-08-26T13:01:03.872Z,4.37
2017-08-26T13:03:32.808Z,3.93
2017-08-26T13:06:00.316Z,4.00
2017-08-26T13:08:33.855Z,4.20
2017-08-26T13:11:02.110Z,4.60
2017-08-26T13:13:36.244Z,4.50
2017-08-26T13:16:04.836Z,3.63
2017-08-26T13:18:32.322Z,4.97
2017-08-26T13:20:59.821Z,4.70
2017-08-26T13:23:27.327Z,4.47
2017-08-26T13:26:05.199Z,4.27
2017-08-26T13:28:32.705Z,7.43
2017-08-26T13:31:06.467Z,4.23
2017-08-26T13:33:34.472Z,6.40
2017-08-26T13:36:01.981Z,3.60
2017-08-26T13:38:36.204Z,4.70
2017-08-26T13:41:04.618Z,4.23
2017-08-26T13:43:35.228Z,5.20
2017-08-26T13:46:03.639Z,3.30
2017-08-26T13:48:31.136Z,3.87
2017-08-26T13:51:04.834Z,4.60
2017-08-26T13:53:35.764Z,5.10
2017-08-26T13:56:04.549Z,4.73
2017-08-26T13:58:32.032Z,4.80
2017-08-26T14:00:59.514Z,4.97
2017-08-26T14:03:27.024Z,4.67
2017-08-26T14:06:04.405Z,5.73
2017-08-26T14:08:31.922Z,5.40
2017-08-26T14:10:59.399Z,6.50
2017-08-26T14:13:27.249Z,5.30
2017-08-26T14:16:04.988Z,4.07
2017-08-26T14:18:32.483Z,4.30
2017-08-26T14:21:06.254Z,4.63
2017-08-26T14:23:34.041Z,6.13
2017-08-26T14:26:01.530Z,4.00
2017-08-26T14:28:36.240Z,5.17
2017-08-26T14:31:04.762Z,4.90
2017-08-26T14:33:32.253Z,4.33
2017-08-26T14:36:05.700Z,5.93
2017-08-26T14:38:34.502Z,4.03
2017-08-26T14:41:05.426Z,4.50
2017-08-26T14:43:34.703Z,3.83
2017-08-26T14:46:05.567Z,8.13
2017-08-26T14:48:33.156Z,4.07
2017-08-26T14:51:00.659Z,6.40
2017-08-26T14:53:34.347Z,3.70
2017-08-26T14:56:01.836Z,6.30
2017-08-26T14:58:29.710Z,5.50
2017-08-26T15:00:57.204Z,4.50
2017-08-26T15:03:35.539Z,7.30
2017-08-26T15:06:03.030Z,5.70
2017-08-26T15:08:36.917Z,4.83
2017-08-26T15:11:14.337Z,4.33
2017-08-26T15:13:45.516Z,4.97
2017-08-26T15:16:13.044Z,5.80
2017-08-26T15:18:41.308Z,4.30
2017-08-26T15:21:08.912Z,5.23
2017-08-26T15:23:43.867Z,4.63
2017-08-26T15:26:11.679Z,4.00
2017-08-26T15:28:39.214Z,3.60
2017-08-26T15:31:14.478Z,6.73
2017-08-26T15:33:41.966Z,4.93
2017-08-26T15:36:15.998Z,4.30
2017-08-26T15:38:44.733Z,3.90
2017-08-26T15:41:15.397Z,4.10
2017-08-26T15:43:43.216Z,5.03
2017-08-26T15:46:16.458Z,3.90
2017-08-26T15:48:45.113Z,4.60
2017-08-26T15:51:13.416Z,5.53
2017-08-26T15:53:44.232Z,9.60
2017-08-26T15:56:11.773Z,4.50
2017-08-26T15:58:45.698Z,6.37
2017-08-26T16:01:13.997Z,4.13
2017-08-26T16:03:44.562Z,4.40
2017-08-26T16:06:15.753Z,4.43
2017-08-26T16:08:43.256Z,4.27
2017-08-26T16:11:10.744Z,5.40
2017-08-26T16:13:38.278Z,4.67
2017-08-26T16:16:13.668Z,5.10
2017-08-26T16:18:44.809Z,3.90
2017-08-26T16:21:12.323Z,5.63
2017-08-26T16:23:39.812Z,4.70
2017-08-26T16:26:15.203Z,6.10
2017-08-26T16:28:44.328Z,5.97
2017-08-26T16:31:12.101Z,4.53
2017-08-26T16:33:45.542Z,5.03
2017-08-26T16:36:13.312Z,5.73
2017-08-26T16:38:44.385Z,5.07
2017-08-26T16:41:11.869Z,5.27
2017-08-26T16:43:45.986Z,5.23
2017-08-26T16:46:13.486Z,6.23
2017-08-26T16:48:40.984Z,5.67
2017-08-26T16:51:14.148Z,6.40
2017-08-26T16:53:41.644Z,6.10
2017-08-26T16:56:09.476Z,5.00
2017-08-26T16:58:36.968Z,4.20
2017-08-26T17:01:14.576Z,9.57
2017-08-26T17:03:42.093Z,8.60
2017-08-26T17:06:15.931Z,7.53
2017-08-26T17:08:43.441Z,5.10
2017-08-26T17:11:14.442Z,6.23
2017-08-26T17:13:42.714Z,5.90
2017-08-26T17:16:10.209Z,6.47
2017-08-26T17:18:44.753Z,9.83
2017-08-26T17:21:12.548Z,6.10
2017-08-26T17:23:40.045Z,7.60
2017-08-26T17:26:13.649Z,6.73
2017-08-26T17:28:41.131Z,6.03
2017-08-26T17:31:15.492Z,8.30
2017-08-26T17:33:42.994Z,6.30
2017-08-26T17:36:10.489Z,5.53
2017-08-26T17:38:38.313Z,6.70
2017-08-26T17:41:05.810Z,6.57
2017-08-26T17:43:34.521Z,7.20
2017-08-26T17:46:02.024Z,6.87
2017-08-26T17:48:29.512Z,8.60
2017-08-26T17:50:58.418Z,7.90
2017-08-26T17:53:33.654Z,7.90
2017-08-26T17:56:05.074Z,5.97
2017-08-26T17:58:32.558Z,7.50
2017-08-26T18:01:06.262Z,8.03
2017-08-26T18:03:34.872Z,7.27
2017-08-26T18:06:02.359Z,6.03
2017-08-26T18:08:29.910Z,6.57
2017-08-26T18:10:57.400Z,6.03
2017-08-26T18:13:25.241Z,8.93
2017-08-26T18:15:52.729Z,7.47
2017-08-26T18:18:26.868Z,6.33
2017-08-26T18:21:04.498Z,7.80
2017-08-26T18:23:35.645Z,6.57
2017-08-26T18:26:03.209Z,7.27
2017-08-26T18:28:30.694Z,6.70
2017-08-26T18:31:04.255Z,6.30
2017-08-26T18:33:35.027Z,8.90
2017-08-26T18:36:04.056Z,6.50
2017-08-26T18:38:34.626Z,8.23
2017-08-26T18:41:04.653Z,6.40
2017-08-26T18:43:32.211Z,5.97
2017-08-26T18:46:06.399Z,9.50
2017-08-26T18:48:34.116Z,10.23
2017-08-26T18:51:04.767Z,9.83
2017-08-26T18:53:32.271Z,6.50
2017-08-26T18:56:00.522Z,9.47
2017-08-26T18:58:28.027Z,8.50
2017-08-26T19:00:55.543Z,11.20
2017-08-26T19:03:24.414Z,6.10
2017-08-26T19:05:52.020Z,8.63
2017-08-26T19:08:25.603Z,7.97
2017-08-26T19:10:54.407Z,10.57
2017-08-26T19:13:21.969Z,9.80
2017-08-26T19:15:50.242Z,9.83
2017-08-26T19:18:17.736Z,10.10
2017-08-26T19:20:45.247Z,6.90
2017-08-26T19:23:14.548Z,8.13
2017-08-26T19:25:45.390Z,10.53
2017-08-26T19:28:12.872Z,7.90
2017-08-26T19:30:40.360Z,7.93
2017-08-26T19:33:07.863Z,7.53
2017-08-26T19:35:36.156Z,8.13
2017-08-26T19:38:14.300Z,7.33
2017-08-26T19:40:41.815Z,7.77
2017-08-26T19:43:16.109Z,6.30
2017-08-26T19:45:43.600Z,8.50
2017-08-26T19:48:11.105Z,7.60
2017-08-26T19:50:38.619Z,11.83
2017-08-26T19:53:06.108Z,8.53
2017-08-26T19:55:33.619Z,8.93
2017-08-26T19:58:01.116Z,6.70
2017-08-26T20:00:28.949Z,8.33
2017-08-26T20:03:04.416Z,8.47
2017-08-26T20:05:32.175Z,8.80
2017-08-26T20:07:59.746Z,8.60
2017-08-26T20:10:34.468Z,9.23
2017-08-26T20:13:05.100Z,8.13
2017-08-26T20:15:36.124Z,9.27
2017-08-26T20:18:04.547Z,13.73
2017-08-26T20:20:35.196Z,9.87
2017-08-26T20:23:02.711Z,7.93
2017-08-26T20:25:30.203Z,8.70
2017-08-26T20:28:04.049Z,7.77
2017-08-26T20:30:34.891Z,8.77
2017-08-26T20:33:05.862Z,8.30
2017-08-26T20:35:33.351Z,9.40
2017-08-26T20:38:03.984Z,10.30
2017-08-26T20:40:31.488Z,9.77
2017-08-26T20:43:05.063Z,10.00
2017-08-26T20:45:32.690Z,8.13
2017-08-26T20:48:00.186Z,11.67
2017-08-26T20:50:27.956Z,9.20
2017-08-26T20:53:03.724Z,9.67
2017-08-26T20:55:31.504Z,8.50
2017-08-26T20:58:05.157Z,13.97
2017-08-26T21:00:34.331Z,8.87
2017-08-26T21:03:01.826Z,9.10
2017-08-26T21:05:29.436Z,10.20
2017-08-26T21:07:56.989Z,9.70
2017-08-26T21:10:34.647Z,8.00
2017-08-26T21:13:05.462Z,8.60
2017-08-26T21:15:32.962Z,8.97
2017-08-26T21:18:06.460Z,8.57
2017-08-26T21:20:34.264Z,7.17
2017-08-26T21:23:04.897Z,9.00
2017-08-26T21:25:32.389Z,9.43
2017-08-26T21:28:00.181Z,11.90
2017-08-26T21:30:28.475Z,10.23
2017-08-26T21:33:04.497Z,12.47
2017-08-26T21:35:31.990Z,9.37
2017-08-26T21:37:59.470Z,28.50
2017-08-26T21:40:26.988Z,8.73
2017-08-26T21:43:04.972Z,14.00
2017-08-26T21:45:32.747Z,9.83
2017-08-26T21:48:06.462Z,7.60
2017-08-26T21:50:34.364Z,9.00
2017-08-26T21:53:01.879Z,11.77
2017-08-26T21:55:29.446Z,8.57
2017-08-26T21:58:03.764Z,8.23
2017-08-26T22:00:34.560Z,10.23
2017-08-26T22:03:02.069Z,8.53
2017-08-26T22:05:35.551Z,8.53
2017-08-26T22:08:04.762Z,8.83
2017-08-26T22:10:32.323Z,11.53
2017-08-26T22:12:59.819Z,8.27
2017-08-26T22:15:27.364Z,11.70
2017-08-26T22:17:54.874Z,8.37
2017-08-26T22:20:25.603Z,10.03
2017-08-26T22:22:54.317Z,8.00
2017-08-26T22:25:21.817Z,7.80
2017-08-26T22:27:55.302Z,8.87
2017-08-26T22:30:24.399Z,9.77
2017-08-26T22:32:54.913Z,9.60
2017-08-26T22:35:25.858Z,11.73
2017-08-26T22:37:53.347Z,7.27
2017-08-26T22:40:24.694Z,8.67
2017-08-26T22:42:55.376Z,9.07
2017-08-26T22:45:22.851Z,8.97
2017-08-26T22:47:50.343Z,12.47
2017-08-26T22:50:17.841Z,8.70
2017-08-26T22:52:55.836Z,7.93
2017-08-26T22:55:23.339Z,9.20
2017-08-26T22:57:50.819Z,9.37
2017-08-26T23:00:18.339Z,10.47
2017-08-26T23:02:54.080Z,8.47
2017-08-26T23:05:21.977Z,8.97
2017-08-26T23:07:55.709Z,12.03
2017-08-26T23:10:23.538Z,9.27
2017-08-26T23:12:54.236Z,8.73
2017-08-26T23:15:25.007Z,9.97
2017-08-26T23:17:52.491Z,9.60
2017-08-26T23:20:20.014Z,9.73
2017-08-26T23:22:54.432Z,17.53
2017-08-26T23:25:25.239Z,9.40
2017-08-26T23:27:53.024Z,9.53
2017-08-26T23:30:26.223Z,13.10
2017-08-26T23:32:54.090Z,9.20
2017-08-26T23:35:21.641Z,12.43
2017-08-26T23:37:55.330Z,9.77
2017-08-26T23:40:22.964Z,10.43
2017-08-26T23:42:56.905Z,8.90
2017-08-26T23:45:25.159Z,10.77
2017-08-26T23:47:53.979Z,10.43
2017-08-26T23:50:24.499Z,10.97
2017-08-26T23:52:51.998Z,10.50
2017-08-26T23:55:19.531Z,14.27
2017-08-26T23:57:54.104Z,11.37
